This is the latest recevied weather packets stored in our database for station/object XE2RCS-1. If no packets are shown the sender has not sent any weather packets the latest 10 day(s).
| Time | Temp. | Humidity | Pressure | Rain* | Wind** | Luminosity | Snow |
|---|---|---|---|---|---|---|---|
| 1778050139 | 23.89° C | 21% | 1009 hPa | 0 mm | - | - | - |
| 1778049539 | 23.89° C | 22% | 1009 hPa | 0 mm | - | - | - |
| 1778048938 | 23.33° C | 25% | 1009 hPa | 0 mm | - | - | - |
| 1778048337 | 23.33° C | 29% | 1009 hPa | 0 mm | - | - | - |
| 1778047736 | 23.33° C | 30% | 1009 hPa | 0 mm | - | - | - |
| 1778047136 | 23.33° C | 30% | 1009 hPa | 0 mm | - | - | - |
| 1778046535 | 23.33° C | 29% | 1009 hPa | 0 mm | - | - | - |
| 1778045935 | 23.89° C | 30% | 1009 hPa | 0 mm | - | - | - |
| 1778045334 | 23.89° C | 28% | 1008 hPa | 0 mm | - | - | - |
| 1778044734 | 23.89° C | 29% | 1008 hPa | 0 mm | - | - | - |
| 1778044133 | 24.44° C | 29% | 1008 hPa | 0 mm | - | - | - |
| 1778043532 | 24.44° C | 28% | 1008 hPa | 0 mm | - | - | - |
| 1778042932 | 25° C | 28% | 1008 hPa | 0 mm | - | - | - |
| 1778042331 | 25° C | 32% | 1008 hPa | 0 mm | - | - | - |
| 1778041730 | 25° C | 31% | 1008 hPa | 0 mm | - | - | - |
| 1778041130 | 25° C | 36% | 1008 hPa | 0 mm | - | - | - |
| 1778040530 | 25° C | 43% | 1010 hPa | 0 mm | - | - | - |
| 1778039929 | 25° C | 49% | 1009 hPa | 0 mm | - | - | - |
| 1778039328 | 25° C | 49% | 1009 hPa | 0 mm | - | - | - |
| 1778038728 | 25.56° C | 60% | 1009 hPa | 0 mm | - | - | - |
| 1778038127 | 26.11° C | 46% | 1009 hPa | 0 mm | - | - | - |
| 1778037527 | 26.11° C | 45% | 1009 hPa | 0 mm | - | - | - |
| 1778036926 | 26.11° C | 44% | 1008 hPa | 0 mm | - | - | - |
| 1778036325 | 26.67° C | 42% | 1008 hPa | 0 mm | - | - | - |
| 1778035725 | 28.33° C | 28% | 1008 hPa | 0 mm | - | - | - |
* Rain latest hour (hover to see other rain measurements)
** Current wind speed in m/s (hover to see current wind gust speed)